sensor_id;sensor_type;location;lat;lon;timestamp;temperature;humidity
57857;DHT22;43683;48.650;9.290;2022-09-09T00:04:35;10.90;89.80
57857;DHT22;43683;48.650;9.290;2022-09-09T00:07:05;10.90;89.70
57857;DHT22;43683;48.650;9.290;2022-09-09T00:09:46;10.80;89.80
57857;DHT22;43683;48.650;9.290;2022-09-09T00:12:18;10.80;90.00
57857;DHT22;43683;48.650;9.290;2022-09-09T00:15:05;10.90;90.00
57857;DHT22;43683;48.650;9.290;2022-09-09T00:17:38;10.90;90.00
57857;DHT22;43683;48.650;9.290;2022-09-09T00:20:29;10.90;89.90
57857;DHT22;43683;48.650;9.290;2022-09-09T00:23:12;11.00;90.00
57857;DHT22;43683;48.650;9.290;2022-09-09T00:25:58;11.00;89.90
57857;DHT22;43683;48.650;9.290;2022-09-09T00:28:26;11.00;89.90
57857;DHT22;43683;48.650;9.290;2022-09-09T00:30:53;11.00;89.90
57857;DHT22;43683;48.650;9.290;2022-09-09T00:33:23;11.10;89.90
57857;DHT22;43683;48.650;9.290;2022-09-09T00:35:53;11.20;89.80
57857;DHT22;43683;48.650;9.290;2022-09-09T00:38:26;11.30;89.50
57857;DHT22;43683;48.650;9.290;2022-09-09T00:41:14;11.50;89.20
57857;DHT22;43683;48.650;9.290;2022-09-09T00:43:55;11.60;89.00
57857;DHT22;43683;48.650;9.290;2022-09-09T00:55:33;11.80;88.40
57857;DHT22;43683;48.650;9.290;2022-09-09T00:58:02;11.90;88.40
57857;DHT22;43683;48.650;9.290;2022-09-09T01:00:36;11.90;88.10
57857;DHT22;43683;48.650;9.290;2022-09-09T01:06:14;11.90;88.50
57857;DHT22;43683;48.650;9.290;2022-09-09T01:11:49;11.80;88.90
57857;DHT22;43683;48.650;9.290;2022-09-09T01:16:59;11.60;89.20
57857;DHT22;43683;48.650;9.290;2022-09-09T01:27:59;11.40;90.00
57857;DHT22;43683;48.650;9.290;2022-09-09T01:30:26;11.40;90.00
57857;DHT22;43683;48.650;9.290;2022-09-09T01:32:55;11.40;90.00
57857;DHT22;43683;48.650;9.290;2022-09-09T01:35:32;11.40;90.10
57857;DHT22;43683;48.650;9.290;2022-09-09T01:37:59;11.40;90.00
57857;DHT22;43683;48.650;9.290;2022-09-09T01:40:25;11.40;90.10
57857;DHT22;43683;48.650;9.290;2022-09-09T01:42:52;11.40;90.10
57857;DHT22;43683;48.650;9.290;2022-09-09T01:45:18;11.50;90.10
57857;DHT22;43683;48.650;9.290;2022-09-09T01:47:45;11.50;90.00
57857;DHT22;43683;48.650;9.290;2022-09-09T01:50:13;11.50;90.10
57857;DHT22;43683;48.650;9.290;2022-09-09T01:52:41;11.50;90.20
57857;DHT22;43683;48.650;9.290;2022-09-09T01:55:08;11.50;90.20
57857;DHT22;43683;48.650;9.290;2022-09-09T01:57:42;11.40;90.30
57857;DHT22;43683;48.650;9.290;2022-09-09T02:00:13;11.40;90.40
57857;DHT22;43683;48.650;9.290;2022-09-09T02:11:02;11.20;90.60
57857;DHT22;43683;48.650;9.290;2022-09-09T02:13:32;11.10;90.60
57857;DHT22;43683;48.650;9.290;2022-09-09T02:16:07;11.00;90.70
57857;DHT22;43683;48.650;9.290;2022-09-09T02:18:40;11.00;90.80
57857;DHT22;43683;48.650;9.290;2022-09-09T02:21:08;11.00;90.70
57857;DHT22;43683;48.650;9.290;2022-09-09T02:23:36;11.00;90.70
57857;DHT22;43683;48.650;9.290;2022-09-09T02:26:03;11.00;90.70
57857;DHT22;43683;48.650;9.290;2022-09-09T02:28:31;11.00;90.70
57857;DHT22;43683;48.650;9.290;2022-09-09T02:30:57;11.00;90.70
57857;DHT22;43683;48.650;9.290;2022-09-09T02:33:27;11.00;90.60
57857;DHT22;43683;48.650;9.290;2022-09-09T02:35:55;11.00;90.60
57857;DHT22;43683;48.650;9.290;2022-09-09T02:38:29;10.90;90.70
57857;DHT22;43683;48.650;9.290;2022-09-09T02:40:57;10.90;90.80
57857;DHT22;43683;48.650;9.290;2022-09-09T02:43:24;10.80;90.90
57857;DHT22;43683;48.650;9.290;2022-09-09T02:46:03;10.70;91.10
57857;DHT22;43683;48.650;9.290;2022-09-09T02:48:35;10.60;91.30
57857;DHT22;43683;48.650;9.290;2022-09-09T02:56:35;10.50;91.40
57857;DHT22;43683;48.650;9.290;2022-09-09T02:59:04;10.50;91.40
57857;DHT22;43683;48.650;9.290;2022-09-09T03:01:30;10.40;91.40
57857;DHT22;43683;48.650;9.290;2022-09-09T03:03:57;10.40;91.50
57857;DHT22;43683;48.650;9.290;2022-09-09T03:06:22;10.40;91.60
57857;DHT22;43683;48.650;9.290;2022-09-09T03:08:48;10.40;91.60
57857;DHT22;43683;48.650;9.290;2022-09-09T03:11:15;10.40;91.50
57857;DHT22;43683;48.650;9.290;2022-09-09T03:13:41;10.50;91.40
57857;DHT22;43683;48.650;9.290;2022-09-09T03:16:06;10.50;91.40
57857;DHT22;43683;48.650;9.290;2022-09-09T03:18:32;10.70;91.20
57857;DHT22;43683;48.650;9.290;2022-09-09T03:20:57;10.70;91.10
57857;DHT22;43683;48.650;9.290;2022-09-09T03:23:25;10.80;91.00
57857;DHT22;43683;48.650;9.290;2022-09-09T03:25:51;10.80;91.00
57857;DHT22;43683;48.650;9.290;2022-09-09T03:28:17;10.80;91.00
57857;DHT22;43683;48.650;9.290;2022-09-09T03:30:43;10.80;91.10
57857;DHT22;43683;48.650;9.290;2022-09-09T03:33:08;10.80;91.20
57857;DHT22;43683;48.650;9.290;2022-09-09T03:35:34;10.80;91.30
57857;DHT22;43683;48.650;9.290;2022-09-09T03:37:59;10.80;91.30
57857;DHT22;43683;48.650;9.290;2022-09-09T03:40:26;10.80;91.30
57857;DHT22;43683;48.650;9.290;2022-09-09T03:42:51;10.80;91.40
57857;DHT22;43683;48.650;9.290;2022-09-09T03:45:17;10.80;91.40
57857;DHT22;43683;48.650;9.290;2022-09-09T03:47:42;10.70;91.40
57857;DHT22;43683;48.650;9.290;2022-09-09T03:50:09;10.80;91.40
57857;DHT22;43683;48.650;9.290;2022-09-09T03:52:40;10.80;91.40
57857;DHT22;43683;48.650;9.290;2022-09-09T03:55:06;10.90;91.40
57857;DHT22;43683;48.650;9.290;2022-09-09T03:57:34;11.00;91.30
57857;DHT22;43683;48.650;9.290;2022-09-09T04:00:05;11.00;91.30
57857;DHT22;43683;48.650;9.290;2022-09-09T04:02:31;11.10;91.30
57857;DHT22;43683;48.650;9.290;2022-09-09T04:04:57;11.10;91.20
57857;DHT22;43683;48.650;9.290;2022-09-09T04:07:22;11.20;91.10
57857;DHT22;43683;48.650;9.290;2022-09-09T04:09:48;11.20;91.10
57857;DHT22;43683;48.650;9.290;2022-09-09T04:12:14;11.30;91.10
57857;DHT22;43683;48.650;9.290;2022-09-09T04:14:39;11.30;91.10
57857;DHT22;43683;48.650;9.290;2022-09-09T04:17:05;11.40;91.10
57857;DHT22;43683;48.650;9.290;2022-09-09T04:19:32;11.50;91.00
57857;DHT22;43683;48.650;9.290;2022-09-09T04:21:57;11.60;90.90
57857;DHT22;43683;48.650;9.290;2022-09-09T04:24:23;11.80;90.70
57857;DHT22;43683;48.650;9.290;2022-09-09T04:26:49;11.90;90.50
57857;DHT22;43683;48.650;9.290;2022-09-09T04:29:15;12.00;90.50
57857;DHT22;43683;48.650;9.290;2022-09-09T04:31:40;12.00;90.50
57857;DHT22;43683;48.650;9.290;2022-09-09T04:34:08;11.90;90.60
57857;DHT22;43683;48.650;9.290;2022-09-09T04:36:34;11.80;90.70
57857;DHT22;43683;48.650;9.290;2022-09-09T04:39:00;11.80;90.80
57857;DHT22;43683;48.650;9.290;2022-09-09T04:41:27;11.80;90.80
57857;DHT22;43683;48.650;9.290;2022-09-09T04:43:52;11.80;90.70
57857;DHT22;43683;48.650;9.290;2022-09-09T04:46:19;11.90;90.60
57857;DHT22;43683;48.650;9.290;2022-09-09T04:48:45;12.00;90.50
57857;DHT22;43683;48.650;9.290;2022-09-09T04:51:12;12.00;90.40
57857;DHT22;43683;48.650;9.290;2022-09-09T04:53:38;12.00;90.30
57857;DHT22;43683;48.650;9.290;2022-09-09T04:56:11;12.10;90.30
57857;DHT22;43683;48.650;9.290;2022-09-09T04:58:38;12.00;90.30
57857;DHT22;43683;48.650;9.290;2022-09-09T05:01:12;12.00;90.40
57857;DHT22;43683;48.650;9.290;2022-09-09T05:03:37;11.90;90.50
57857;DHT22;43683;48.650;9.290;2022-09-09T05:06:08;11.90;90.60
57857;DHT22;43683;48.650;9.290;2022-09-09T05:08:39;11.80;90.70
57857;DHT22;43683;48.650;9.290;2022-09-09T05:11:19;11.80;90.70
57857;DHT22;43683;48.650;9.290;2022-09-09T05:13:46;11.80;90.90
57857;DHT22;43683;48.650;9.290;2022-09-09T05:16:13;11.70;90.90
57857;DHT22;43683;48.650;9.290;2022-09-09T05:18:40;11.70;90.90
57857;DHT22;43683;48.650;9.290;2022-09-09T05:21:06;11.80;90.90
57857;DHT22;43683;48.650;9.290;2022-09-09T05:23:33;11.70;90.90
57857;DHT22;43683;48.650;9.290;2022-09-09T05:25:59;11.70;90.90
57857;DHT22;43683;48.650;9.290;2022-09-09T05:28:26;11.70;91.00
57857;DHT22;43683;48.650;9.290;2022-09-09T05:30:56;11.70;91.00
57857;DHT22;43683;48.650;9.290;2022-09-09T05:33:22;11.80;90.90
57857;DHT22;43683;48.650;9.290;2022-09-09T05:35:58;11.90;90.80
57857;DHT22;43683;48.650;9.290;2022-09-09T05:38:24;12.10;90.80
57857;DHT22;43683;48.650;9.290;2022-09-09T05:40:50;12.40;90.50
57857;DHT22;43683;48.650;9.290;2022-09-09T05:43:18;12.70;90.20
57857;DHT22;43683;48.650;9.290;2022-09-09T05:45:43;12.90;89.70
57857;DHT22;43683;48.650;9.290;2022-09-09T05:48:09;13.20;89.00
57857;DHT22;43683;48.650;9.290;2022-09-09T05:50:34;13.40;88.50
57857;DHT22;43683;48.650;9.290;2022-09-09T05:53:00;13.60;88.30
57857;DHT22;43683;48.650;9.290;2022-09-09T05:55:25;13.60;88.00
57857;DHT22;43683;48.650;9.290;2022-09-09T05:57:51;13.80;87.90
57857;DHT22;43683;48.650;9.290;2022-09-09T06:00:17;13.90;87.80
57857;DHT22;43683;48.650;9.290;2022-09-09T06:02:43;13.90;87.70
57857;DHT22;43683;48.650;9.290;2022-09-09T06:05:09;14.10;87.80
57857;DHT22;43683;48.650;9.290;2022-09-09T06:07:36;14.20;87.80
57857;DHT22;43683;48.650;9.290;2022-09-09T06:10:02;14.30;87.80
57857;DHT22;43683;48.650;9.290;2022-09-09T06:12:28;14.40;87.60
57857;DHT22;43683;48.650;9.290;2022-09-09T06:14:53;14.50;87.50
57857;DHT22;43683;48.650;9.290;2022-09-09T06:17:19;14.60;87.30
57857;DHT22;43683;48.650;9.290;2022-09-09T06:19:44;14.80;87.10
57857;DHT22;43683;48.650;9.290;2022-09-09T06:22:10;14.90;86.70
57857;DHT22;43683;48.650;9.290;2022-09-09T06:24:37;15.00;86.50
57857;DHT22;43683;48.650;9.290;2022-09-09T06:27:03;15.20;86.30
57857;DHT22;43683;48.650;9.290;2022-09-09T06:29:30;15.30;86.10
57857;DHT22;43683;48.650;9.290;2022-09-09T06:31:56;15.40;86.10
57857;DHT22;43683;48.650;9.290;2022-09-09T06:34:21;15.50;85.90
57857;DHT22;43683;48.650;9.290;2022-09-09T06:36:47;15.60;85.70
57857;DHT22;43683;48.650;9.290;2022-09-09T06:39:13;15.70;85.50
57857;DHT22;43683;48.650;9.290;2022-09-09T06:41:40;16.00;84.90
57857;DHT22;43683;48.650;9.290;2022-09-09T06:44:07;16.20;84.40
57857;DHT22;43683;48.650;9.290;2022-09-09T06:46:33;16.30;84.10
57857;DHT22;43683;48.650;9.290;2022-09-09T06:48:59;16.50;83.90
57857;DHT22;43683;48.650;9.290;2022-09-09T06:51:33;16.60;83.60
57857;DHT22;43683;48.650;9.290;2022-09-09T06:54:00;16.70;83.10
57857;DHT22;43683;48.650;9.290;2022-09-09T06:56:34;16.90;82.90
57857;DHT22;43683;48.650;9.290;2022-09-09T06:59:02;17.00;82.60
57857;DHT22;43683;48.650;9.290;2022-09-09T07:01:31;17.20;82.20
57857;DHT22;43683;48.650;9.290;2022-09-09T07:03:57;17.30;81.60
57857;DHT22;43683;48.650;9.290;2022-09-09T07:06:28;17.40;81.50
57857;DHT22;43683;48.650;9.290;2022-09-09T07:08:56;17.60;81.10
57857;DHT22;43683;48.650;9.290;2022-09-09T07:11:25;17.60;81.00
57857;DHT22;43683;48.650;9.290;2022-09-09T07:13:52;17.90;80.80
57857;DHT22;43683;48.650;9.290;2022-09-09T07:16:20;18.10;80.30
57857;DHT22;43683;48.650;9.290;2022-09-09T07:18:46;18.40;79.90
57857;DHT22;43683;48.650;9.290;2022-09-09T07:21:13;18.70;79.40
57857;DHT22;43683;48.650;9.290;2022-09-09T07:23:39;18.90;79.10
57857;DHT22;43683;48.650;9.290;2022-09-09T07:26:13;19.20;79.60
57857;DHT22;43683;48.650;9.290;2022-09-09T07:28:40;19.60;79.10
57857;DHT22;43683;48.650;9.290;2022-09-09T07:31:08;20.00;78.20
57857;DHT22;43683;48.650;9.290;2022-09-09T07:33:38;20.30;77.50
57857;DHT22;43683;48.650;9.290;2022-09-09T07:38:39;20.20;76.30
57857;DHT22;43683;48.650;9.290;2022-09-09T07:41:10;20.10;75.80
57857;DHT22;43683;48.650;9.290;2022-09-09T07:43:39;20.00;75.40
57857;DHT22;43683;48.650;9.290;2022-09-09T07:46:06;19.80;75.40
57857;DHT22;43683;48.650;9.290;2022-09-09T07:48:32;19.60;75.40
57857;DHT22;43683;48.650;9.290;2022-09-09T07:51:06;19.40;75.70
57857;DHT22;43683;48.650;9.290;2022-09-09T07:53:32;19.10;75.80
57857;DHT22;43683;48.650;9.290;2022-09-09T07:56:06;19.10;76.80
57857;DHT22;43683;48.650;9.290;2022-09-09T07:58:33;19.70;76.30
57857;DHT22;43683;48.650;9.290;2022-09-09T08:00:58;20.40;75.30
57857;DHT22;43683;48.650;9.290;2022-09-09T08:03:24;20.70;74.00
57857;DHT22;43683;48.650;9.290;2022-09-09T08:05:50;21.00;73.30
57857;DHT22;43683;48.650;9.290;2022-09-09T08:08:15;21.20;72.90
57857;DHT22;43683;48.650;9.290;2022-09-09T08:10:42;21.20;72.30
57857;DHT22;43683;48.650;9.290;2022-09-09T08:13:08;21.00;72.00
57857;DHT22;43683;48.650;9.290;2022-09-09T08:15:34;21.20;71.20
57857;DHT22;43683;48.650;9.290;2022-09-09T08:17:59;21.30;70.70
57857;DHT22;43683;48.650;9.290;2022-09-09T08:20:25;21.10;70.80
57857;DHT22;43683;48.650;9.290;2022-09-09T08:22:51;21.10;70.80
57857;DHT22;43683;48.650;9.290;2022-09-09T08:25:16;21.40;70.40
57857;DHT22;43683;48.650;9.290;2022-09-09T08:27:42;21.40;69.90
57857;DHT22;43683;48.650;9.290;2022-09-09T08:30:08;21.20;69.80
57857;DHT22;43683;48.650;9.290;2022-09-09T08:32:33;20.80;70.00
57857;DHT22;43683;48.650;9.290;2022-09-09T08:35:00;20.40;70.50
57857;DHT22;43683;48.650;9.290;2022-09-09T08:37:26;20.40;70.70
57857;DHT22;43683;48.650;9.290;2022-09-09T08:39:51;20.50;70.60
57857;DHT22;43683;48.650;9.290;2022-09-09T08:42:40;20.50;70.40
57857;DHT22;43683;48.650;9.290;2022-09-09T08:45:21;20.80;69.60
57857;DHT22;43683;48.650;9.290;2022-09-09T08:50:53;21.20;68.70
57857;DHT22;43683;48.650;9.290;2022-09-09T08:53:29;21.10;68.80
57857;DHT22;43683;48.650;9.290;2022-09-09T08:55:59;20.80;69.10
57857;DHT22;43683;48.650;9.290;2022-09-09T08:58:28;21.00;68.80
57857;DHT22;43683;48.650;9.290;2022-09-09T09:01:17;21.50;67.70
57857;DHT22;43683;48.650;9.290;2022-09-09T09:03:57;21.70;66.70
57857;DHT22;43683;48.650;9.290;2022-09-09T09:09:07;21.70;66.70
57857;DHT22;43683;48.650;9.290;2022-09-09T09:11:38;21.40;67.10
57857;DHT22;43683;48.650;9.290;2022-09-09T09:14:17;21.10;67.50
57857;DHT22;43683;48.650;9.290;2022-09-09T09:19:14;20.70;68.20
57857;DHT22;43683;48.650;9.290;2022-09-09T09:22:13;20.50;68.30
57857;DHT22;43683;48.650;9.290;2022-09-09T09:27:33;20.90;67.60
57857;DHT22;43683;48.650;9.290;2022-09-09T09:30:13;21.60;66.20
57857;DHT22;43683;48.650;9.290;2022-09-09T09:32:54;22.10;65.50
57857;DHT22;43683;48.650;9.290;2022-09-09T09:35:24;22.40;64.60
57857;DHT22;43683;48.650;9.290;2022-09-09T09:37:50;22.70;64.20
57857;DHT22;43683;48.650;9.290;2022-09-09T09:40:18;23.20;63.50
57857;DHT22;43683;48.650;9.290;2022-09-09T09:42:52;23.60;62.50
57857;DHT22;43683;48.650;9.290;2022-09-09T09:45:40;23.90;61.80
57857;DHT22;43683;48.650;9.290;2022-09-09T09:48:11;24.20;60.60
57857;DHT22;43683;48.650;9.290;2022-09-09T09:50:48;24.60;60.20
57857;DHT22;43683;48.650;9.290;2022-09-09T09:53:25;24.90;59.00
57857;DHT22;43683;48.650;9.290;2022-09-09T09:56:03;25.50;59.50
57857;DHT22;43683;48.650;9.290;2022-09-09T09:58:32;25.90;57.70
57857;DHT22;43683;48.650;9.290;2022-09-09T10:00:59;25.70;57.30
57857;DHT22;43683;48.650;9.290;2022-09-09T10:03:28;25.60;57.10
57857;DHT22;43683;48.650;9.290;2022-09-09T10:05:54;25.80;56.60
57857;DHT22;43683;48.650;9.290;2022-09-09T10:08:22;26.20;55.80
57857;DHT22;43683;48.650;9.290;2022-09-09T10:11:24;26.60;56.40
57857;DHT22;43683;48.650;9.290;2022-09-09T10:19:30;26.30;54.50
57857;DHT22;43683;48.650;9.290;2022-09-09T10:22:04;26.60;54.30
57857;DHT22;43683;48.650;9.290;2022-09-09T10:28:20;26.50;53.80
57857;DHT22;43683;48.650;9.290;2022-09-09T10:38:39;25.40;53.20
57857;DHT22;43683;48.650;9.290;2022-09-09T10:41:33;25.00;53.00
57857;DHT22;43683;48.650;9.290;2022-09-09T10:44:06;25.10;52.70
57857;DHT22;43683;48.650;9.290;2022-09-09T10:46:49;25.40;52.40
57857;DHT22;43683;48.650;9.290;2022-09-09T10:55:10;25.50;51.80
57857;DHT22;43683;48.650;9.290;2022-09-09T10:57:52;25.10;52.50
57857;DHT22;43683;48.650;9.290;2022-09-09T11:02:56;24.60;52.30
57857;DHT22;43683;48.650;9.290;2022-09-09T11:05:38;25.00;51.10
57857;DHT22;43683;48.650;9.290;2022-09-09T11:08:22;25.10;50.40
57857;DHT22;43683;48.650;9.290;2022-09-09T11:21:25;24.80;50.20
57857;DHT22;43683;48.650;9.290;2022-09-09T11:23:57;24.10;51.00
57857;DHT22;43683;48.650;9.290;2022-09-09T11:26:38;23.00;52.60
57857;DHT22;43683;48.650;9.290;2022-09-09T11:32:26;20.90;55.50
57857;DHT22;43683;48.650;9.290;2022-09-09T11:40:24;20.40;56.40
57857;DHT22;43683;48.650;9.290;2022-09-09T11:43:05;19.10;59.00
57857;DHT22;43683;48.650;9.290;2022-09-09T11:45:31;18.40;61.20
57857;DHT22;43683;48.650;9.290;2022-09-09T11:48:00;17.70;62.90
57857;DHT22;43683;48.650;9.290;2022-09-09T11:53:21;18.20;61.80
57857;DHT22;43683;48.650;9.290;2022-09-09T11:58:27;19.90;58.70
57857;DHT22;43683;48.650;9.290;2022-09-09T12:00:57;20.50;57.50
57857;DHT22;43683;48.650;9.290;2022-09-09T12:03:45;20.80;56.60
57857;DHT22;43683;48.650;9.290;2022-09-09T12:08:41;20.60;56.70
57857;DHT22;43683;48.650;9.290;2022-09-09T12:11:08;20.60;56.40
57857;DHT22;43683;48.650;9.290;2022-09-09T12:13:33;21.50;55.10
57857;DHT22;43683;48.650;9.290;2022-09-09T12:16:00;22.50;53.60
57857;DHT22;43683;48.650;9.290;2022-09-09T12:18:35;23.30;52.20
57857;DHT22;43683;48.650;9.290;2022-09-09T12:23:57;24.00;50.80
57857;DHT22;43683;48.650;9.290;2022-09-09T12:29:23;24.10;50.40
57857;DHT22;43683;48.650;9.290;2022-09-09T12:34:39;24.00;51.00
57857;DHT22;43683;48.650;9.290;2022-09-09T12:37:19;24.00;50.40
57857;DHT22;43683;48.650;9.290;2022-09-09T12:39:56;24.00;50.20
57857;DHT22;43683;48.650;9.290;2022-09-09T12:42:22;24.20;50.10
57857;DHT22;43683;48.650;9.290;2022-09-09T12:44:56;24.30;49.70
57857;DHT22;43683;48.650;9.290;2022-09-09T12:47:27;24.60;49.00
57857;DHT22;43683;48.650;9.290;2022-09-09T12:49:54;24.30;49.10
57857;DHT22;43683;48.650;9.290;2022-09-09T12:52:33;23.80;49.40
57857;DHT22;43683;48.650;9.290;2022-09-09T12:55:02;23.70;48.90
57857;DHT22;43683;48.650;9.290;2022-09-09T12:57:35;24.20;48.00
57857;DHT22;43683;48.650;9.290;2022-09-09T13:00:06;24.20;47.80
57857;DHT22;43683;48.650;9.290;2022-09-09T13:02:34;23.90;47.80
57857;DHT22;43683;48.650;9.290;2022-09-09T13:05:14;23.80;48.20
57857;DHT22;43683;48.650;9.290;2022-09-09T13:07:40;23.70;48.10
57857;DHT22;43683;48.650;9.290;2022-09-09T13:10:05;23.90;48.20
57857;DHT22;43683;48.650;9.290;2022-09-09T13:12:32;24.30;47.60
57857;DHT22;43683;48.650;9.290;2022-09-09T13:14:57;24.40;47.30
57857;DHT22;43683;48.650;9.290;2022-09-09T13:17:27;23.60;47.90
57857;DHT22;43683;48.650;9.290;2022-09-09T13:19:54;22.90;48.70
57857;DHT22;43683;48.650;9.290;2022-09-09T13:22:37;22.40;49.40
57857;DHT22;43683;48.650;9.290;2022-09-09T13:27:36;22.20;49.60
57857;DHT22;43683;48.650;9.290;2022-09-09T13:30:39;22.20;49.40
57857;DHT22;43683;48.650;9.290;2022-09-09T13:35:35;23.60;48.20
57857;DHT22;43683;48.650;9.290;2022-09-09T13:38:16;24.40;47.00
57857;DHT22;43683;48.650;9.290;2022-09-09T13:41:04;25.00;46.20
57857;DHT22;43683;48.650;9.290;2022-09-09T13:43:37;25.20;46.00
57857;DHT22;43683;48.650;9.290;2022-09-09T13:46:43;25.10;46.60
57857;DHT22;43683;48.650;9.290;2022-09-09T13:51:43;24.80;47.80
57857;DHT22;43683;48.650;9.290;2022-09-09T13:54:13;24.70;47.90
57857;DHT22;43683;48.650;9.290;2022-09-09T13:56:40;24.80;48.00
57857;DHT22;43683;48.650;9.290;2022-09-09T13:59:11;24.80;47.90
57857;DHT22;43683;48.650;9.290;2022-09-09T14:01:38;24.90;47.20
57857;DHT22;43683;48.650;9.290;2022-09-09T14:04:04;25.00;46.90
57857;DHT22;43683;48.650;9.290;2022-09-09T14:06:31;25.10;47.10
57857;DHT22;43683;48.650;9.290;2022-09-09T14:08:58;25.00;46.80
57857;DHT22;43683;48.650;9.290;2022-09-09T14:11:24;25.00;46.70
57857;DHT22;43683;48.650;9.290;2022-09-09T14:13:49;24.80;46.70
57857;DHT22;43683;48.650;9.290;2022-09-09T14:16:16;25.00;46.30
57857;DHT22;43683;48.650;9.290;2022-09-09T14:18:43;24.70;46.50
57857;DHT22;43683;48.650;9.290;2022-09-09T14:21:09;24.00;46.70
57857;DHT22;43683;48.650;9.290;2022-09-09T14:23:35;23.30;47.20
57857;DHT22;43683;48.650;9.290;2022-09-09T14:26:00;23.40;47.70
57857;DHT22;43683;48.650;9.290;2022-09-09T14:28:26;24.20;46.70
57857;DHT22;43683;48.650;9.290;2022-09-09T14:30:53;24.70;45.60
57857;DHT22;43683;48.650;9.290;2022-09-09T14:33:19;25.00;45.10
57857;DHT22;43683;48.650;9.290;2022-09-09T14:35:44;25.20;44.80
57857;DHT22;43683;48.650;9.290;2022-09-09T14:38:10;25.60;44.60
57857;DHT22;43683;48.650;9.290;2022-09-09T14:40:37;25.70;44.50
57857;DHT22;43683;48.650;9.290;2022-09-09T14:43:03;25.80;44.30
57857;DHT22;43683;48.650;9.290;2022-09-09T14:45:29;25.80;44.70
57857;DHT22;43683;48.650;9.290;2022-09-09T14:47:55;25.10;44.70
57857;DHT22;43683;48.650;9.290;2022-09-09T14:50:22;24.40;45.50
57857;DHT22;43683;48.650;9.290;2022-09-09T14:52:48;24.20;46.10
57857;DHT22;43683;48.650;9.290;2022-09-09T14:55:14;24.30;45.70
57857;DHT22;43683;48.650;9.290;2022-09-09T14:57:41;24.60;45.20
57857;DHT22;43683;48.650;9.290;2022-09-09T15:00:08;25.00;44.90
57857;DHT22;43683;48.650;9.290;2022-09-09T15:02:34;25.20;44.70
57857;DHT22;43683;48.650;9.290;2022-09-09T15:04:59;25.50;44.70
57857;DHT22;43683;48.650;9.290;2022-09-09T15:07:25;25.80;44.20
57857;DHT22;43683;48.650;9.290;2022-09-09T15:09:52;26.10;43.70
57857;DHT22;43683;48.650;9.290;2022-09-09T15:12:18;26.10;43.50
57857;DHT22;43683;48.650;9.290;2022-09-09T15:14:45;26.20;43.50
57857;DHT22;43683;48.650;9.290;2022-09-09T15:17:11;26.30;43.20
57857;DHT22;43683;48.650;9.290;2022-09-09T15:19:37;25.60;43.00
57857;DHT22;43683;48.650;9.290;2022-09-09T15:22:03;24.80;43.50
57857;DHT22;43683;48.650;9.290;2022-09-09T15:24:31;23.90;44.20
57857;DHT22;43683;48.650;9.290;2022-09-09T15:26:56;23.30;44.90
57857;DHT22;43683;48.650;9.290;2022-09-09T15:29:23;23.00;45.00
57857;DHT22;43683;48.650;9.290;2022-09-09T15:31:48;22.90;45.00
57857;DHT22;43683;48.650;9.290;2022-09-09T15:34:14;22.90;44.90
57857;DHT22;43683;48.650;9.290;2022-09-09T15:36:42;23.00;44.60
57857;DHT22;43683;48.650;9.290;2022-09-09T15:39:10;23.30;44.50
57857;DHT22;43683;48.650;9.290;2022-09-09T15:41:38;24.20;43.70
57857;DHT22;43683;48.650;9.290;2022-09-09T15:44:04;24.40;43.10
57857;DHT22;43683;48.650;9.290;2022-09-09T15:46:42;24.40;43.10
57857;DHT22;43683;48.650;9.290;2022-09-09T15:49:13;23.90;43.30
57857;DHT22;43683;48.650;9.290;2022-09-09T15:51:41;23.30;44.10
57857;DHT22;43683;48.650;9.290;2022-09-09T15:54:08;22.70;45.00
57857;DHT22;43683;48.650;9.290;2022-09-09T15:56:34;22.20;45.80
57857;DHT22;43683;48.650;9.290;2022-09-09T15:59:01;21.80;46.40
57857;DHT22;43683;48.650;9.290;2022-09-09T16:01:28;21.40;46.80
57857;DHT22;43683;48.650;9.290;2022-09-09T16:03:56;21.10;47.10
57857;DHT22;43683;48.650;9.290;2022-09-09T16:06:23;20.90;47.50
57857;DHT22;43683;48.650;9.290;2022-09-09T16:08:51;20.60;47.60
57857;DHT22;43683;48.650;9.290;2022-09-09T16:11:22;20.50;47.70
57857;DHT22;43683;48.650;9.290;2022-09-09T16:13:50;20.30;48.00
57857;DHT22;43683;48.650;9.290;2022-09-09T16:16:19;20.10;48.20
57857;DHT22;43683;48.650;9.290;2022-09-09T16:18:49;20.10;48.50
57857;DHT22;43683;48.650;9.290;2022-09-09T16:21:22;20.00;48.40
57857;DHT22;43683;48.650;9.290;2022-09-09T16:23:51;20.00;48.80
57857;DHT22;43683;48.650;9.290;2022-09-09T16:26:17;19.90;48.80
57857;DHT22;43683;48.650;9.290;2022-09-09T16:28:44;19.90;48.90
57857;DHT22;43683;48.650;9.290;2022-09-09T16:31:14;19.90;48.90
57857;DHT22;43683;48.650;9.290;2022-09-09T16:33:41;20.00;49.10
57857;DHT22;43683;48.650;9.290;2022-09-09T16:36:08;20.40;48.60
57857;DHT22;43683;48.650;9.290;2022-09-09T16:38:35;20.50;48.40
57857;DHT22;43683;48.650;9.290;2022-09-09T16:41:02;20.40;48.50
57857;DHT22;43683;48.650;9.290;2022-09-09T16:43:30;20.30;48.80
57857;DHT22;43683;48.650;9.290;2022-09-09T16:45:56;20.30;48.90
57857;DHT22;43683;48.650;9.290;2022-09-09T16:48:21;20.20;49.20
57857;DHT22;43683;48.650;9.290;2022-09-09T16:50:47;20.10;49.40
57857;DHT22;43683;48.650;9.290;2022-09-09T16:53:13;19.90;49.60
57857;DHT22;43683;48.650;9.290;2022-09-09T16:55:40;19.80;50.20
57857;DHT22;43683;48.650;9.290;2022-09-09T16:58:07;19.60;50.40
57857;DHT22;43683;48.650;9.290;2022-09-09T17:00:34;19.50;50.80
57857;DHT22;43683;48.650;9.290;2022-09-09T17:02:59;19.40;51.00
57857;DHT22;43683;48.650;9.290;2022-09-09T17:05:25;19.30;51.30
57857;DHT22;43683;48.650;9.290;2022-09-09T17:07:50;19.20;51.50
57857;DHT22;43683;48.650;9.290;2022-09-09T17:10:17;19.10;51.70
57857;DHT22;43683;48.650;9.290;2022-09-09T17:12:42;19.00;51.80
57857;DHT22;43683;48.650;9.290;2022-09-09T17:15:08;18.90;52.10
57857;DHT22;43683;48.650;9.290;2022-09-09T17:17:34;18.80;52.40
57857;DHT22;43683;48.650;9.290;2022-09-09T17:20:00;18.60;52.60
57857;DHT22;43683;48.650;9.290;2022-09-09T17:22:27;18.50;53.00
57857;DHT22;43683;48.650;9.290;2022-09-09T17:24:52;18.30;53.40
57857;DHT22;43683;48.650;9.290;2022-09-09T17:27:18;18.20;53.80
57857;DHT22;43683;48.650;9.290;2022-09-09T17:29:43;18.10;54.20
57857;DHT22;43683;48.650;9.290;2022-09-09T17:32:09;18.00;54.40
57857;DHT22;43683;48.650;9.290;2022-09-09T17:34:35;17.90;54.80
57857;DHT22;43683;48.650;9.290;2022-09-09T17:37:01;17.80;55.00
57857;DHT22;43683;48.650;9.290;2022-09-09T17:39:27;17.70;55.40
57857;DHT22;43683;48.650;9.290;2022-09-09T17:41:54;17.60;55.60
57857;DHT22;43683;48.650;9.290;2022-09-09T17:44:20;17.60;55.70
57857;DHT22;43683;48.650;9.290;2022-09-09T17:46:45;17.50;56.00
57857;DHT22;43683;48.650;9.290;2022-09-09T17:49:14;17.30;56.30